createdAt,value
2023-04-23T00:03:13.564Z,18.30
2023-04-23T00:06:18.293Z,23.00
2023-04-23T00:09:35.244Z,22.05
2023-04-23T00:12:42.195Z,18.88
2023-04-23T00:19:16.584Z,16.00
2023-04-23T00:22:28.306Z,19.55
2023-04-23T00:25:31.740Z,22.35
2023-04-23T00:28:35.153Z,16.80
2023-04-23T00:32:06.413Z,27.98
2023-04-23T00:35:26.620Z,25.20
2023-04-23T00:38:55.135Z,23.15
2023-04-23T00:42:13.227Z,26.35
2023-04-23T00:45:41.342Z,33.17
2023-04-23T00:48:46.949Z,35.22
2023-04-23T00:51:53.680Z,33.03
2023-04-23T00:54:57.405Z,39.67
2023-04-23T00:58:07.212Z,24.85
2023-04-23T01:01:14.713Z,28.65
2023-04-23T01:04:23.417Z,24.67
2023-04-23T01:07:35.212Z,24.52
2023-04-23T01:10:39.517Z,16.48
2023-04-23T01:13:48.728Z,20.75
2023-04-23T01:17:28.739Z,21.98
2023-04-23T01:21:21.853Z,22.13
2023-04-23T01:24:25.209Z,19.70
2023-04-23T01:27:46.908Z,34.67
2023-04-23T01:30:53.660Z,21.50
2023-04-23T01:33:57.465Z,18.63
2023-04-23T01:37:01.066Z,29.25
2023-04-23T01:40:09.139Z,27.58
2023-04-23T01:43:12.391Z,38.83
2023-04-23T01:46:20.008Z,30.52
2023-04-23T01:49:27.191Z,17.60
2023-04-23T01:52:30.432Z,71.40
2023-04-23T01:55:35.686Z,23.38
2023-04-23T01:58:44.016Z,19.00
2023-04-23T02:02:05.729Z,24.63
2023-04-23T02:05:18.911Z,23.30
2023-04-23T02:08:37.645Z,18.80
2023-04-23T02:12:06.576Z,40.55
2023-04-23T02:15:21.787Z,13.88
2023-04-23T02:18:25.329Z,21.90
2023-04-23T02:21:29.143Z,10.52
2023-04-23T02:24:32.418Z,17.63
2023-04-23T02:27:36.114Z,34.90
2023-04-23T02:30:46.660Z,15.15
2023-04-23T02:34:03.211Z,9.25
2023-04-23T02:37:06.896Z,8.40
2023-04-23T02:41:01.133Z,10.05
2023-04-23T02:44:04.525Z,17.95
2023-04-23T02:47:07.911Z,18.50
2023-04-23T02:50:11.564Z,27.98
2023-04-23T02:53:21.496Z,12.38
2023-04-23T02:56:56.206Z,8.15
2023-04-23T03:00:24.831Z,16.20
2023-04-23T03:03:32.518Z,6.15
2023-04-23T03:06:41.184Z,10.00
2023-04-23T03:09:45.158Z,11.93
2023-04-23T03:13:04.115Z,3.55
2023-04-23T03:16:13.338Z,18.92
2023-04-23T03:19:55.216Z,17.48
2023-04-23T03:22:59.299Z,3.83
2023-04-23T03:26:09.879Z,3.70
2023-04-23T03:29:13.298Z,3.90
2023-04-23T03:32:16.993Z,11.40
2023-04-23T03:35:22.750Z,5.57
2023-04-23T03:38:26.775Z,11.93
2023-04-23T03:41:35.633Z,3.75
2023-04-23T03:48:42.427Z,6.68
2023-04-23T03:51:52.827Z,9.45
2023-04-23T03:55:21.592Z,7.70
2023-04-23T03:58:55.675Z,2.60
2023-04-23T04:02:14.703Z,8.57
2023-04-23T04:05:25.640Z,10.43
2023-04-23T04:08:30.639Z,5.90
2023-04-23T04:12:24.362Z,5.95
2023-04-23T04:15:33.611Z,6.88
2023-04-23T04:18:36.884Z,9.30
2023-04-23T04:21:43.279Z,6.15
2023-04-23T04:24:49.252Z,10.05
2023-04-23T04:27:52.555Z,15.40
2023-04-23T04:31:22.737Z,5.70
2023-04-23T04:34:30.948Z,14.00
2023-04-23T04:37:35.015Z,5.68
2023-04-23T04:40:38.505Z,6.00
2023-04-23T04:43:42.079Z,3.90
2023-04-23T04:47:14.332Z,6.13
2023-04-23T04:50:20.059Z,10.18
2023-04-23T04:53:31.293Z,2.20
2023-04-23T04:56:39.589Z,6.43
2023-04-23T05:00:02.990Z,5.78
2023-04-23T05:03:10.981Z,9.70
2023-04-23T05:06:15.903Z,3.67
2023-04-23T05:09:19.159Z,3.97
2023-04-23T05:12:44.466Z,5.15
2023-04-23T05:19:25.563Z,3.50
2023-04-23T05:22:54.167Z,9.63
2023-04-23T05:25:58.999Z,6.95
2023-04-23T05:29:02.229Z,5.82
2023-04-23T05:32:05.660Z,3.20
2023-04-23T05:35:58.771Z,7.80
2023-04-23T05:39:05.529Z,11.50
2023-04-23T05:42:45.536Z,6.22
2023-04-23T05:45:48.794Z,4.07
2023-04-23T05:48:52.161Z,3.38
2023-04-23T05:52:20.177Z,8.20
2023-04-23T05:55:41.621Z,8.98
2023-04-23T05:59:09.751Z,8.35
2023-04-23T06:02:43.957Z,9.27
2023-04-23T06:05:48.718Z,8.23
2023-04-23T06:09:05.183Z,9.07
2023-04-23T06:12:33.032Z,11.57
2023-04-23T06:15:36.266Z,5.72
2023-04-23T06:18:39.891Z,11.65
2023-04-23T06:21:47.959Z,21.35
2023-04-23T06:25:16.129Z,8.27
2023-04-23T06:28:46.582Z,10.52
2023-04-23T06:32:08.791Z,6.78
2023-04-23T06:35:18.043Z,5.75
2023-04-23T06:38:24.575Z,5.00
2023-04-23T06:41:28.020Z,6.80
2023-04-23T06:44:47.495Z,2.00
2023-04-23T06:47:51.552Z,8.80
2023-04-23T06:50:56.762Z,21.83
2023-04-23T06:54:00.068Z,4.55
2023-04-23T06:57:03.609Z,5.93
2023-04-23T07:00:09.776Z,9.13
2023-04-23T07:03:16.476Z,54.97
2023-04-23T07:06:49.602Z,13.40
2023-04-23T07:09:53.005Z,11.15
2023-04-23T07:12:56.659Z,21.42
2023-04-23T07:15:59.914Z,15.55
2023-04-23T07:19:03.416Z,15.63
2023-04-23T07:22:09.447Z,15.80
2023-04-23T07:25:50.366Z,12.55
2023-04-23T07:28:53.871Z,14.57
2023-04-23T07:31:57.400Z,9.00
2023-04-23T07:35:00.744Z,9.07
2023-04-23T07:38:04.939Z,3.38
2023-04-23T07:41:08.180Z,15.35
2023-04-23T07:44:11.544Z,10.63
2023-04-23T07:47:15.146Z,8.32
2023-04-23T07:50:19.799Z,13.52
2023-04-23T07:53:23.448Z,27.02
2023-04-23T07:56:27.871Z,16.58
2023-04-23T07:59:31.319Z,18.52
2023-04-23T08:02:34.736Z,11.95
2023-04-23T08:05:39.701Z,60.45
2023-04-23T08:08:47.961Z,23.90
2023-04-23T08:11:55.188Z,16.20
2023-04-23T08:18:12.213Z,9.63
2023-04-23T08:21:20.778Z,21.33
2023-04-23T08:24:27.931Z,6.68
2023-04-23T08:27:34.578Z,23.17
2023-04-23T08:30:42.847Z,8.18
2023-04-23T08:33:47.024Z,6.40
2023-04-23T08:37:01.339Z,8.57
2023-04-23T08:40:05.795Z,2.70
2023-04-23T08:43:17.278Z,9.63
2023-04-23T08:46:23.965Z,16.92
2023-04-23T08:49:34.219Z,10.75
2023-04-23T08:52:41.872Z,16.08
2023-04-23T08:55:51.663Z,20.35
2023-04-23T08:59:04.599Z,14.23
2023-04-23T09:02:10.729Z,9.05
2023-04-23T09:05:15.724Z,17.77
2023-04-23T09:08:20.145Z,15.90
2023-04-23T09:11:37.782Z,12.88
2023-04-23T09:15:11.334Z,10.95
2023-04-23T09:18:14.813Z,9.68
2023-04-23T09:21:18.285Z,36.22
2023-04-23T09:24:23.979Z,6.50
2023-04-23T09:27:30.042Z,6.80
2023-04-23T09:30:45.781Z,15.80
2023-04-23T09:33:56.158Z,7.93
2023-04-23T09:37:02.628Z,6.45
2023-04-23T09:40:09.372Z,10.48
2023-04-23T09:43:16.063Z,8.05
2023-04-23T09:46:19.627Z,13.02
2023-04-23T09:49:23.323Z,6.65
2023-04-23T09:52:26.963Z,18.50
2023-04-23T09:55:42.678Z,9.98
2023-04-23T09:58:48.181Z,8.15
2023-04-23T10:01:54.294Z,12.80
2023-04-23T10:05:06.924Z,12.93
2023-04-23T10:08:15.360Z,9.20
2023-04-23T10:11:20.984Z,9.35
2023-04-23T10:14:26.687Z,19.50
2023-04-23T10:17:30.241Z,16.13
2023-04-23T10:20:36.758Z,9.75
2023-04-23T10:23:43.773Z,18.80
2023-04-23T10:26:48.303Z,18.27
2023-04-23T10:29:52.172Z,12.65
2023-04-23T10:32:56.405Z,18.30
2023-04-23T10:36:00.546Z,12.68
2023-04-23T10:39:09.310Z,9.77
2023-04-23T10:42:16.913Z,12.82
2023-04-23T10:45:25.292Z,9.00
2023-04-23T10:49:10.542Z,11.43
2023-04-23T10:52:27.331Z,9.82
2023-04-23T10:55:32.554Z,21.67
2023-04-23T10:58:52.565Z,9.52
2023-04-23T11:02:00.907Z,13.82
2023-04-23T11:05:10.417Z,24.35
2023-04-23T11:08:19.566Z,18.92
2023-04-23T11:11:42.166Z,18.90
2023-04-23T11:14:50.735Z,17.00
2023-04-23T11:17:54.050Z,15.40
2023-04-23T11:20:59.991Z,21.30
2023-04-23T11:24:06.870Z,12.73
2023-04-23T11:27:12.673Z,26.17
2023-04-23T11:30:21.469Z,22.30
2023-04-23T11:33:24.820Z,21.10
2023-04-23T11:36:28.906Z,15.38
2023-04-23T11:39:35.492Z,25.55
2023-04-23T11:42:48.606Z,23.13
2023-04-23T11:45:51.814Z,20.30
2023-04-23T11:48:55.265Z,33.50
2023-04-23T11:52:09.512Z,69.13
2023-04-23T11:55:14.048Z,71.68
2023-04-23T11:58:21.761Z,90.63
2023-04-23T12:01:51.145Z,78.40
2023-04-23T12:05:06.971Z,51.15
2023-04-23T12:08:21.176Z,54.10
2023-04-23T12:11:27.563Z,50.13
2023-04-23T12:14:31.541Z,52.47
2023-04-23T12:17:35.288Z,54.42
2023-04-23T12:20:41.083Z,46.33
2023-04-23T12:23:45.558Z,42.08
2023-04-23T12:27:20.807Z,30.45
2023-04-23T12:30:24.312Z,34.08
2023-04-23T12:33:31.160Z,42.97
2023-04-23T12:36:36.696Z,50.85
2023-04-23T12:39:40.129Z,36.50
2023-04-23T12:42:47.841Z,34.55
2023-04-23T12:45:57.300Z,36.28
2023-04-23T12:49:03.791Z,44.22
2023-04-23T12:52:13.859Z,35.17
2023-04-23T12:55:17.567Z,38.85
2023-04-23T12:58:32.144Z,40.70
2023-04-23T13:01:37.904Z,42.92
2023-04-23T13:04:43.835Z,39.85
2023-04-23T13:07:47.178Z,34.22
2023-04-23T13:10:55.037Z,44.00
2023-04-23T13:14:01.241Z,51.35
2023-04-23T13:17:19.552Z,58.00
2023-04-23T13:20:26.935Z,48.95
2023-04-23T13:23:36.092Z,44.00
2023-04-23T13:26:48.758Z,39.50
2023-04-23T13:29:57.377Z,38.30
2023-04-23T13:33:12.860Z,37.28
2023-04-23T13:36:21.277Z,37.92
2023-04-23T13:39:33.632Z,31.73
2023-04-23T13:42:39.896Z,34.90
2023-04-23T13:45:43.297Z,27.23
2023-04-23T13:48:54.893Z,19.45
2023-04-23T13:52:13.380Z,23.85
2023-04-23T13:55:19.965Z,25.30
2023-04-23T13:58:24.454Z,23.23
2023-04-23T14:01:27.846Z,19.35
2023-04-23T14:04:36.426Z,18.45
2023-04-23T14:07:43.816Z,13.80
2023-04-23T14:10:54.244Z,22.08
2023-04-23T14:14:01.806Z,32.42
2023-04-23T14:20:16.253Z,13.43
2023-04-23T14:23:28.168Z,9.63
2023-04-23T14:26:47.285Z,10.20
2023-04-23T14:30:05.913Z,9.18
2023-04-23T14:33:26.973Z,9.25
2023-04-23T14:36:30.484Z,11.38
2023-04-23T14:39:41.437Z,13.93
2023-04-23T14:42:48.185Z,12.50
2023-04-23T14:45:52.639Z,20.67
2023-04-23T14:48:56.251Z,18.15
2023-04-23T14:52:11.943Z,12.32
2023-04-23T14:55:18.375Z,14.23
2023-04-23T14:58:21.660Z,10.50
2023-04-23T15:01:49.686Z,12.52
2023-04-23T15:04:53.096Z,16.08
2023-04-23T15:07:57.146Z,5.38
2023-04-23T15:11:15.199Z,11.02
2023-04-23T15:14:32.799Z,12.40
2023-04-23T15:17:40.419Z,19.88
2023-04-23T15:20:47.391Z,15.60
2023-04-23T15:23:55.348Z,13.90
2023-04-23T15:27:04.250Z,16.10
2023-04-23T15:30:23.589Z,31.60
2023-04-23T15:33:52.084Z,26.58
2023-04-23T15:36:55.407Z,25.33
2023-04-23T15:40:01.712Z,19.17
2023-04-23T15:43:14.236Z,26.63
2023-04-23T15:46:42.836Z,26.05
2023-04-23T15:49:51.699Z,33.13
2023-04-23T15:52:55.066Z,31.55
2023-04-23T15:56:02.735Z,27.08
2023-04-23T15:59:06.703Z,17.88
2023-04-23T16:02:10.550Z,12.48
2023-04-23T16:05:14.122Z,8.82
2023-04-23T16:08:23.430Z,8.35
2023-04-23T16:11:38.881Z,14.50
2023-04-23T16:14:43.401Z,5.95
2023-04-23T16:17:50.379Z,6.05
2023-04-23T16:20:53.748Z,13.23
2023-04-23T16:23:57.504Z,13.05
2023-04-23T16:27:06.975Z,12.45
2023-04-23T16:30:14.228Z,7.75
2023-04-23T16:33:17.484Z,6.65
2023-04-23T16:36:23.641Z,8.05
2023-04-23T16:39:27.480Z,14.43
2023-04-23T16:42:38.080Z,11.40
2023-04-23T16:45:50.415Z,10.02
2023-04-23T16:48:53.732Z,11.95
2023-04-23T16:51:57.298Z,10.50
2023-04-23T16:55:00.804Z,11.27
2023-04-23T16:58:04.903Z,15.63
2023-04-23T17:01:08.279Z,20.48
2023-04-23T17:04:12.437Z,13.75
2023-04-23T17:07:15.967Z,12.38
2023-04-23T17:10:20.130Z,14.88
2023-04-23T17:13:23.525Z,9.68
2023-04-23T17:16:27.399Z,9.55
2023-04-23T17:19:30.857Z,7.10
2023-04-23T17:22:34.171Z,8.07
2023-04-23T17:25:37.427Z,6.82
2023-04-23T17:28:43.620Z,10.35
2023-04-23T17:31:47.373Z,13.02
2023-04-23T17:34:59.351Z,11.95
2023-04-23T17:38:10.095Z,19.58
2023-04-23T17:41:13.418Z,17.52
2023-04-23T17:44:16.754Z,16.02
2023-04-23T17:47:20.098Z,11.13
2023-04-23T17:50:23.492Z,24.65
2023-04-23T17:53:26.891Z,15.88
2023-04-23T17:56:30.249Z,17.33
2023-04-23T17:59:33.508Z,16.63
2023-04-23T18:02:40.884Z,22.42
2023-04-23T18:05:44.349Z,13.20
2023-04-23T18:08:48.010Z,12.63
2023-04-23T18:11:51.530Z,11.48
2023-04-23T18:14:54.853Z,20.77
2023-04-23T18:17:58.283Z,10.15
2023-04-23T18:21:03.622Z,8.07
2023-04-23T18:24:07.139Z,11.20
2023-04-23T18:27:10.617Z,8.65
2023-04-23T18:30:15.148Z,9.27
2023-04-23T18:33:35.807Z,13.55
2023-04-23T18:36:42.611Z,14.75
2023-04-23T18:39:46.422Z,11.32
2023-04-23T18:42:49.765Z,8.48
2023-04-23T18:45:53.213Z,6.60
2023-04-23T18:49:34.299Z,8.93
2023-04-23T18:52:37.874Z,7.82
2023-04-23T18:55:41.356Z,7.18
2023-04-23T18:58:44.655Z,12.75
2023-04-23T19:01:51.530Z,7.68
2023-04-23T19:04:54.923Z,8.27
2023-04-23T19:07:58.235Z,12.27
2023-04-23T19:11:01.665Z,10.65
2023-04-23T19:14:05.539Z,11.20
2023-04-23T19:17:08.980Z,12.88
2023-04-23T19:20:15.625Z,11.77
2023-04-23T19:23:19.246Z,11.90
2023-04-23T19:26:22.591Z,10.43
2023-04-23T19:29:25.895Z,15.13
2023-04-23T19:32:30.594Z,9.45
2023-04-23T19:35:34.337Z,7.72
2023-04-23T19:38:37.795Z,7.75
2023-04-23T19:41:41.317Z,7.57
2023-04-23T19:44:44.716Z,6.82
2023-04-23T19:47:48.680Z,6.85
2023-04-23T19:50:52.234Z,7.00
2023-04-23T19:53:56.878Z,7.13
2023-04-23T19:57:00.227Z,4.65
2023-04-23T20:00:05.788Z,8.27
2023-04-23T20:03:09.413Z,8.57
2023-04-23T20:06:13.037Z,4.50
2023-04-23T20:09:19.257Z,6.40
2023-04-23T20:12:22.639Z,5.32
2023-04-23T20:15:26.536Z,6.78
2023-04-23T20:18:34.877Z,6.85
2023-04-23T20:21:39.590Z,6.30
2023-04-23T20:24:47.001Z,7.38
2023-04-23T20:27:51.629Z,8.23
2023-04-23T20:30:54.920Z,5.63
2023-04-23T20:33:58.803Z,7.68
2023-04-23T20:37:02.826Z,6.55
2023-04-23T20:40:06.783Z,9.23
2023-04-23T20:43:10.254Z,6.78
2023-04-23T20:46:13.776Z,11.55
2023-04-23T20:49:17.205Z,11.25
2023-04-23T20:52:20.494Z,11.13
2023-04-23T20:55:23.878Z,6.68
2023-04-23T20:58:27.361Z,8.88
2023-04-23T21:01:30.836Z,10.25
2023-04-23T21:04:34.328Z,8.02
2023-04-23T21:07:37.748Z,6.78
2023-04-23T21:10:42.104Z,6.65
2023-04-23T21:13:48.656Z,7.43
2023-04-23T21:16:52.074Z,12.75
2023-04-23T21:19:55.439Z,7.90
2023-04-23T21:22:58.898Z,9.85
2023-04-23T21:26:02.553Z,8.75
2023-04-23T21:29:05.938Z,7.35
2023-04-23T21:32:10.071Z,8.65
2023-04-23T21:35:13.466Z,7.60
2023-04-23T21:38:16.779Z,11.10
2023-04-23T21:41:20.350Z,8.68
2023-04-23T21:44:23.772Z,5.95
2023-04-23T21:47:27.074Z,16.10
2023-04-23T21:50:32.202Z,10.25
2023-04-23T21:53:35.770Z,9.88
2023-04-23T21:56:39.467Z,8.13
2023-04-23T21:59:43.325Z,4.82
2023-04-23T22:02:47.969Z,5.95
2023-04-23T22:05:53.066Z,7.70
2023-04-23T22:08:57.555Z,4.40
2023-04-23T22:12:02.674Z,2.65
2023-04-23T22:15:11.846Z,4.35
2023-04-23T22:18:16.234Z,3.58
2023-04-23T22:21:19.599Z,5.32
2023-04-23T22:24:23.520Z,3.78
2023-04-23T22:27:26.917Z,3.17
2023-04-23T22:30:30.318Z,2.83
2023-04-23T22:33:33.720Z,7.07
2023-04-23T22:36:37.132Z,4.13
2023-04-23T22:39:40.775Z,4.80
2023-04-23T22:42:45.187Z,14.38
2023-04-23T22:45:48.513Z,12.32
2023-04-23T22:48:53.418Z,16.73
2023-04-23T22:51:56.843Z,11.75
2023-04-23T22:55:00.208Z,29.35
2023-04-23T22:58:03.841Z,17.38
2023-04-23T23:01:07.497Z,14.52
2023-04-23T23:04:11.641Z,12.32
2023-04-23T23:07:15.684Z,5.85
2023-04-23T23:10:22.180Z,11.45
2023-04-23T23:13:26.605Z,19.10
2023-04-23T23:16:31.234Z,9.38
2023-04-23T23:19:34.607Z,9.95
2023-04-23T23:22:56.598Z,7.90
2023-04-23T23:26:00.290Z,12.85
2023-04-23T23:29:04.100Z,27.50
2023-04-23T23:32:07.525Z,28.02
2023-04-23T23:35:10.988Z,21.02
2023-04-23T23:38:14.770Z,9.77
2023-04-23T23:41:18.256Z,6.25
2023-04-23T23:44:21.585Z,29.10
2023-04-23T23:47:24.970Z,7.85
2023-04-23T23:50:28.469Z,13.57
2023-04-23T23:53:31.900Z,16.77
2023-04-23T23:56:35.351Z,3.05
2023-04-23T23:59:38.710Z,10.55
